Time;durP1;ratioP1;P1;durP2;ratioP2;P2;SDS_P1;SDS_P2;PMS_P1;PMS_P2;Temp;Humidity;BMP_temperature;BMP_pressure;BME280_temperature;BME280_humidity;BME280_pressure;Samples;Min_cycle;Max_cycle;Signal;HPM_P1;HPM_P2
2023/07/13 00:01:58;;;;;;;3.10;2.07;;;;;;;;;;5028641;28;20552;-55
2023/07/13 00:04:26;;;;;;;4.37;1.57;;;;;;;;;;5026956;28;20537;-54
2023/07/13 00:06:53;;;;;;;2.83;1.40;;;;;;;;;;5030741;28;20533;-54
2023/07/13 00:09:21;;;;;;;3.80;1.60;;;;;;;;;;5013375;28;20506;-54
2023/07/13 00:11:52;;;;;;;3.70;1.57;;;;;;;;;;5010997;28;20474;-54
2023/07/13 00:14:19;;;;;;;3.23;1.60;;;;;;;;;;5012072;28;20475;-54
2023/07/13 00:16:46;;;;;;;3.70;1.90;;;;;;;;;;5030249;28;21021;-54
2023/07/13 00:19:15;;;;;;;4.40;1.57;;;;;;;;;;5030112;28;20847;-54
2023/07/13 00:21:43;;;;;;;2.47;1.53;;;;;;;;;;5030204;28;21057;-54
2023/07/13 00:24:13;;;;;;;2.67;1.53;;;;;;;;;;5017694;28;21025;-54
2023/07/13 00:26:40;;;;;;;3.23;1.67;;;;;;;;;;5030544;28;20451;-54
2023/07/13 00:29:08;;;;;;;4.37;2.27;;;;;;;;;;5019655;28;20921;-54
2023/07/13 00:31:36;;;;;;;2.97;1.93;;;;;;;;;;5020427;28;20439;-54
2023/07/13 00:34:03;;;;;;;3.87;2.00;;;;;;;;;;5028195;28;20453;-54
2023/07/13 00:36:32;;;;;;;4.00;1.83;;;;;;;;;;5027030;28;20533;-54
2023/07/13 00:39:00;;;;;;;3.50;2.10;;;;;;;;;;5027386;28;20553;-54
2023/07/13 00:41:27;;;;;;;4.00;1.70;;;;;;;;;;5016202;28;20480;-54
2023/07/13 00:43:54;;;;;;;3.03;1.70;;;;;;;;;;5034045;28;20889;-54
2023/07/13 00:46:26;;;;;;;3.10;1.57;;;;;;;;;;5032329;28;20534;-54
2023/07/13 00:48:54;;;;;;;3.07;1.70;;;;;;;;;;5032877;28;20541;-54
2023/07/13 00:51:23;;;;;;;3.00;1.43;;;;;;;;;;5031844;28;20533;-54
2023/07/13 00:53:52;;;;;;;3.60;2.13;;;;;;;;;;5014752;28;20530;-54
2023/07/13 00:56:20;;;;;;;2.97;1.60;;;;;;;;;;5023624;28;20801;-54
2023/07/13 00:58:47;;;;;;;2.90;1.90;;;;;;;;;;5013805;28;20546;-54
2023/07/13 01:01:14;;;;;;;3.30;1.90;;;;;;;;;;5018829;28;20553;-54
2023/07/13 01:03:42;;;;;;;3.13;1.40;;;;;;;;;;5023356;28;20531;-54
2023/07/13 01:06:09;;;;;;;3.17;1.60;;;;;;;;;;5015006;28;20689;-54
2023/07/13 01:08:36;;;;;;;3.90;2.10;;;;;;;;;;5024616;28;20537;-54
2023/07/13 01:11:05;;;;;;;2.33;1.50;;;;;;;;;;5017815;28;20526;-54
2023/07/13 01:13:32;;;;;;;2.70;1.57;;;;;;;;;;5018368;28;20462;-54
2023/07/13 01:16:03;;;;;;;3.00;1.60;;;;;;;;;;5021212;28;20509;-54
2023/07/13 01:18:30;;;;;;;2.80;2.00;;;;;;;;;;5025981;28;20553;-54
2023/07/13 01:21:00;;;;;;;3.10;1.60;;;;;;;;;;5032847;28;20534;-54
2023/07/13 01:23:27;;;;;;;3.13;1.90;;;;;;;;;;5014946;28;20535;-54
2023/07/13 01:25:55;;;;;;;3.33;1.50;;;;;;;;;;5022062;28;20442;-54
2023/07/13 01:28:22;;;;;;;3.17;1.77;;;;;;;;;;5033343;28;20462;-54
2023/07/13 01:30:50;;;;;;;2.27;1.37;;;;;;;;;;5020424;28;20526;-54
2023/07/13 01:33:18;;;;;;;2.47;1.43;;;;;;;;;;5013038;28;20546;-54
2023/07/13 01:35:45;;;;;;;2.30;1.30;;;;;;;;;;5013268;28;20514;-54
2023/07/13 01:38:15;;;;;;;3.07;1.70;;;;;;;;;;5012635;28;21027;-54
2023/07/13 01:40:42;;;;;;;2.90;1.50;;;;;;;;;;5017496;28;20530;-54
2023/07/13 01:43:09;;;;;;;3.20;2.00;;;;;;;;;;5025084;28;20681;-54
2023/07/13 01:45:37;;;;;;;3.23;1.77;;;;;;;;;;5012941;28;20538;-54
2023/07/13 01:48:06;;;;;;;3.07;1.50;;;;;;;;;;5013085;28;20447;-54
2023/07/13 01:50:33;;;;;;;3.60;1.60;;;;;;;;;;5021343;28;20493;-54
2023/07/13 01:53:01;;;;;;;3.40;1.33;;;;;;;;;;5024485;28;20533;-54
2023/07/13 01:55:30;;;;;;;4.33;2.03;;;;;;;;;;5016137;28;20498;-54
2023/07/13 01:57:57;;;;;;;4.00;1.80;;;;;;;;;;5024871;28;20522;-54
2023/07/13 02:00:25;;;;;;;2.70;1.13;;;;;;;;;;5012753;28;20537;-54
2023/07/13 02:02:52;;;;;;;7.50;2.90;;;;;;;;;;5016380;28;20859;-54
2023/07/13 02:05:20;;;;;;;3.17;1.60;;;;;;;;;;5030978;28;20525;-54
2023/07/13 02:07:47;;;;;;;2.67;1.53;;;;;;;;;;5021569;28;20530;-54
2023/07/13 02:10:15;;;;;;;3.30;1.67;;;;;;;;;;5025861;28;20534;-54
2023/07/13 02:12:43;;;;;;;3.03;1.40;;;;;;;;;;5026149;28;20475;-54
2023/07/13 02:15:11;;;;;;;3.77;1.80;;;;;;;;;;5032115;28;20549;-54
2023/07/13 02:17:39;;;;;;;2.27;1.47;;;;;;;;;;5031795;28;20526;-54
2023/07/13 02:20:07;;;;;;;2.13;1.23;;;;;;;;;;5032158;28;20904;-54
2023/07/13 02:22:34;;;;;;;2.47;1.33;;;;;;;;;;5029858;28;20478;-54
2023/07/13 02:25:01;;;;;;;2.03;1.03;;;;;;;;;;5018939;28;20489;-54
2023/07/13 02:27:28;;;;;;;2.63;1.20;;;;;;;;;;5021880;28;20471;-54
2023/07/13 02:29:57;;;;;;;3.13;1.27;;;;;;;;;;5029617;28;20542;-54
2023/07/13 02:32:25;;;;;;;3.23;1.30;;;;;;;;;;5031638;28;20534;-54
2023/07/13 02:34:53;;;;;;;3.50;1.63;;;;;;;;;;5025210;28;20467;-54
2023/07/13 02:37:22;;;;;;;2.93;1.40;;;;;;;;;;5013175;28;20447;-54
2023/07/13 02:39:49;;;;;;;3.03;1.50;;;;;;;;;;5013280;28;20896;-54
2023/07/13 02:42:16;;;;;;;4.20;1.30;;;;;;;;;;5031068;28;20565;-54
2023/07/13 02:44:43;;;;;;;4.73;1.30;;;;;;;;;;5028438;28;20530;-54
2023/07/13 02:47:12;;;;;;;4.00;1.40;;;;;;;;;;5018005;28;20530;-54
2023/07/13 02:49:40;;;;;;;2.40;1.10;;;;;;;;;;5030906;28;20470;-54
2023/07/13 02:52:07;;;;;;;2.67;1.40;;;;;;;;;;5026538;28;20447;-54
2023/07/13 02:54:35;;;;;;;2.13;1.20;;;;;;;;;;5015449;28;20529;-54
2023/07/13 02:57:02;;;;;;;2.20;1.20;;;;;;;;;;5031383;28;20542;-54
2023/07/13 02:59:30;;;;;;;2.80;1.70;;;;;;;;;;5019294;28;20559;-54
2023/07/13 03:01:57;;;;;;;3.33;1.77;;;;;;;;;;5031036;28;20704;-54
2023/07/13 03:04:26;;;;;;;3.37;1.30;;;;;;;;;;5029042;28;20535;-54
2023/07/13 03:06:57;;;;;;;2.57;1.53;;;;;;;;;;5030954;28;20529;-54
2023/07/13 03:09:24;;;;;;;3.60;1.73;;;;;;;;;;5029346;28;20994;-54
2023/07/13 03:11:53;;;;;;;2.50;1.00;;;;;;;;;;5029472;28;20534;-54
2023/07/13 03:14:20;;;;;;;2.10;1.10;;;;;;;;;;5021011;28;20522;-54
2023/07/13 03:16:48;;;;;;;2.73;1.20;;;;;;;;;;5011521;28;20530;-54
2023/07/13 03:19:15;;;;;;;1.90;1.10;;;;;;;;;;5012051;28;20582;-54
2023/07/13 03:21:43;;;;;;;3.40;0.83;;;;;;;;;;5012084;28;20535;-54
2023/07/13 03:24:11;;;;;;;2.00;1.07;;;;;;;;;;5018460;28;20534;-54
2023/07/13 03:26:38;;;;;;;2.53;1.23;;;;;;;;;;5029598;28;20489;-54
2023/07/13 03:29:06;;;;;;;2.00;1.00;;;;;;;;;;5016254;28;20558;-54
2023/07/13 03:31:34;;;;;;;2.40;1.17;;;;;;;;;;5022094;28;20530;-54
2023/07/13 03:34:01;;;;;;;2.20;1.20;;;;;;;;;;5010919;28;20534;-54
2023/07/13 03:36:30;;;;;;;2.20;1.00;;;;;;;;;;5022033;28;21022;-54
2023/07/13 03:39:00;;;;;;;1.90;0.80;;;;;;;;;;5028807;28;20553;-54
2023/07/13 03:41:28;;;;;;;1.80;0.90;;;;;;;;;;5029148;28;20892;-54
2023/07/13 03:43:55;;;;;;;1.90;1.07;;;;;;;;;;5016436;28;20851;-54
2023/07/13 03:46:22;;;;;;;2.47;0.80;;;;;;;;;;5029797;28;20489;-54
2023/07/13 03:48:49;;;;;;;2.30;1.00;;;;;;;;;;5027896;28;20537;-54
2023/07/13 03:51:17;;;;;;;2.10;1.10;;;;;;;;;;5030149;28;20537;-54
2023/07/13 03:53:45;;;;;;;2.17;1.03;;;;;;;;;;5021581;28;20526;-54
2023/07/13 03:56:15;;;;;;;2.07;1.00;;;;;;;;;;5028040;28;20537;-54
2023/07/13 03:58:43;;;;;;;1.80;0.77;;;;;;;;;;5017711;28;20455;-54
2023/07/13 04:01:11;;;;;;;2.00;1.00;;;;;;;;;;5027559;28;20521;-54
2023/07/13 04:03:38;;;;;;;2.67;1.07;;;;;;;;;;5021306;28;20557;-54
2023/07/13 04:06:07;;;;;;;5.50;1.50;;;;;;;;;;5030733;28;20529;-54
2023/07/13 04:08:35;;;;;;;2.10;0.90;;;;;;;;;;5012861;28;20463;-54
2023/07/13 04:11:03;;;;;;;1.90;0.97;;;;;;;;;;5015238;28;20526;-54
2023/07/13 04:13:31;;;;;;;2.33;0.80;;;;;;;;;;5022657;28;21007;-54
2023/07/13 04:15:59;;;;;;;1.93;0.83;;;;;;;;;;5015411;28;20451;-54
2023/07/13 04:18:26;;;;;;;2.10;0.80;;;;;;;;;;5026909;28;21047;-54
2023/07/13 04:20:53;;;;;;;2.30;0.90;;;;;;;;;;5034477;28;20521;-54
2023/07/13 04:23:21;;;;;;;2.13;0.90;;;;;;;;;;5034606;28;20569;-54
2023/07/13 04:25:49;;;;;;;2.57;1.10;;;;;;;;;;5030249;28;20521;-54
2023/07/13 04:28:17;;;;;;;3.00;0.90;;;;;;;;;;5016596;28;20479;-54
2023/07/13 04:30:46;;;;;;;2.00;1.00;;;;;;;;;;5032602;28;20442;-54
2023/07/13 04:33:13;;;;;;;2.00;1.00;;;;;;;;;;5022819;28;20529;-54
2023/07/13 04:35:40;;;;;;;4.90;3.53;;;;;;;;;;5034233;28;20989;-54
2023/07/13 04:38:11;;;;;;;1.90;0.77;;;;;;;;;;5023867;28;20533;-54
2023/07/13 04:40:40;;;;;;;1.70;0.80;;;;;;;;;;5042841;23;20487;-85
2023/07/13 04:43:07;;;;;;;2.73;1.27;;;;;;;;;;5018810;28;20571;-82
2023/07/13 04:45:34;;;;;;;2.53;1.20;;;;;;;;;;5032780;28;20537;-82
2023/07/13 04:48:03;;;;;;;2.83;1.10;;;;;;;;;;5025420;28;20489;-83
2023/07/13 04:50:30;;;;;;;2.90;1.23;;;;;;;;;;5016643;28;20467;-85
2023/07/13 04:52:58;;;;;;;2.33;1.30;;;;;;;;;;5033489;28;20501;-85
2023/07/13 04:55:25;;;;;;;2.20;1.27;;;;;;;;;;5021766;28;20527;-85
2023/07/13 04:57:52;;;;;;;2.63;1.10;;;;;;;;;;5024016;28;20526;-85
2023/07/13 05:00:20;;;;;;;2.27;1.20;;;;;;;;;;5021809;28;20565;-86
2023/07/13 05:02:47;;;;;;;2.17;1.10;;;;;;;;;;5017855;28;20510;-86
2023/07/13 05:05:16;;;;;;;3.27;1.20;;;;;;;;;;5031024;28;20478;-87
2023/07/13 05:07:43;;;;;;;2.73;1.40;;;;;;;;;;5023446;28;20487;-87
2023/07/13 05:10:11;;;;;;;3.10;1.27;;;;;;;;;;5028239;28;20533;-89
2023/07/13 05:12:38;;;;;;;2.50;0.83;;;;;;;;;;5032941;28;21141;-87
2023/07/13 05:15:06;;;;;;;2.20;1.00;;;;;;;;;;5028743;28;20490;-85
2023/07/13 05:17:33;;;;;;;2.20;1.10;;;;;;;;;;5020192;28;20968;-87
2023/07/13 05:20:01;;;;;;;2.23;1.43;;;;;;;;;;5023147;28;20475;-87
2023/07/13 05:22:29;;;;;;;2.00;1.00;;;;;;;;;;5022587;28;20922;-86
2023/07/13 05:24:57;;;;;;;3.63;1.40;;;;;;;;;;5021583;28;20891;-87
2023/07/13 05:27:24;;;;;;;1.83;0.93;;;;;;;;;;5019362;28;20475;-87
2023/07/13 05:29:51;;;;;;;1.90;0.90;;;;;;;;;;5022548;28;20435;-87
2023/07/13 05:32:19;;;;;;;2.93;1.10;;;;;;;;;;5012477;28;20841;-87
2023/07/13 05:34:46;;;;;;;2.43;1.20;;;;;;;;;;5030058;28;20447;-85
2023/07/13 05:37:13;;;;;;;2.10;1.17;;;;;;;;;;5031525;28;20500;-88
2023/07/13 05:39:42;;;;;;;2.50;1.60;;;;;;;;;;5040960;28;20469;-87
2023/07/13 05:42:09;;;;;;;2.37;1.20;;;;;;;;;;5051051;28;20457;-85
2023/07/13 05:44:36;;;;;;;2.40;1.10;;;;;;;;;;5032812;28;20976;-85
2023/07/13 05:47:04;;;;;;;2.33;1.03;;;;;;;;;;5021446;28;20546;-85
2023/07/13 05:49:31;;;;;;;3.73;1.20;;;;;;;;;;5021860;28;20461;-84
2023/07/13 05:51:58;;;;;;;2.00;1.10;;;;;;;;;;5018972;28;20530;-86
2023/07/13 05:54:26;;;;;;;2.10;1.17;;;;;;;;;;5023007;28;20580;-85
2023/07/13 05:56:54;;;;;;;3.50;1.40;;;;;;;;;;5030456;28;20479;-85
2023/07/13 05:59:22;;;;;;;2.00;1.10;;;;;;;;;;5023276;28;20475;-85
2023/07/13 06:01:49;;;;;;;2.30;1.20;;;;;;;;;;5026902;28;20541;-85
2023/07/13 06:04:16;;;;;;;2.30;1.30;;;;;;;;;;5028603;28;20566;-85
2023/07/13 06:06:43;;;;;;;2.20;1.23;;;;;;;;;;5029613;28;20481;-85
2023/07/13 06:09:10;;;;;;;4.07;1.43;;;;;;;;;;5030234;28;20529;-86
2023/07/13 06:11:38;;;;;;;2.03;1.03;;;;;;;;;;5025377;28;20472;-85
2023/07/13 06:14:06;;;;;;;2.97;1.10;;;;;;;;;;5024133;28;20538;-85
2023/07/13 06:16:34;;;;;;;3.00;1.20;;;;;;;;;;5016210;28;20505;-85
2023/07/13 06:19:01;;;;;;;1.90;0.70;;;;;;;;;;5013798;28;20467;-85
2023/07/13 06:21:28;;;;;;;2.77;1.03;;;;;;;;;;5021800;28;20471;-85
2023/07/13 06:23:55;;;;;;;2.20;1.03;;;;;;;;;;5011614;28;20511;-85
2023/07/13 06:26:23;;;;;;;2.20;1.20;;;;;;;;;;5015183;28;20451;-85
2023/07/13 06:28:50;;;;;;;2.83;1.17;;;;;;;;;;5013398;28;20482;-85
2023/07/13 06:31:19;;;;;;;2.50;1.20;;;;;;;;;;5023698;28;20529;-85
2023/07/13 06:33:46;;;;;;;2.20;1.03;;;;;;;;;;5011499;28;20538;-85
2023/07/13 06:36:13;;;;;;;3.77;1.53;;;;;;;;;;5011579;28;20533;-85
2023/07/13 06:38:40;;;;;;;2.80;1.03;;;;;;;;;;5010998;28;20879;-85
2023/07/13 06:41:08;;;;;;;4.57;0.90;;;;;;;;;;5018651;28;20481;-85
2023/07/13 06:43:35;;;;;;;2.60;1.60;;;;;;;;;;5029445;28;20534;-85
2023/07/13 06:46:03;;;;;;;2.10;0.90;;;;;;;;;;5016023;28;20527;-85
2023/07/13 06:48:33;;;;;;;2.20;1.20;;;;;;;;;;5024101;28;20442;-85
2023/07/13 06:51:02;;;;;;;2.10;1.20;;;;;;;;;;5022558;28;20452;-85
2023/07/13 06:53:29;;;;;;;3.77;1.20;;;;;;;;;;5010895;28;20460;-85
2023/07/13 06:55:56;;;;;;;2.13;1.00;;;;;;;;;;5026306;28;20470;-85
2023/07/13 06:58:24;;;;;;;2.37;1.10;;;;;;;;;;5031028;28;20561;-85
2023/07/13 07:00:52;;;;;;;2.10;1.10;;;;;;;;;;5022540;28;20500;-85
2023/07/13 07:03:20;;;;;;;1.80;1.00;;;;;;;;;;5019369;28;20508;-85
2023/07/13 07:05:48;;;;;;;2.00;0.87;;;;;;;;;;5030931;28;20525;-85
2023/07/13 07:08:15;;;;;;;2.07;1.03;;;;;;;;;;5026723;28;20534;-85
2023/07/13 07:10:43;;;;;;;2.17;1.10;;;;;;;;;;5013966;28;20501;-85
2023/07/13 07:13:10;;;;;;;4.13;0.90;;;;;;;;;;5019172;28;20554;-85
2023/07/13 07:15:38;;;;;;;2.40;1.40;;;;;;;;;;5017730;28;20877;-85
2023/07/13 07:18:05;;;;;;;2.00;1.03;;;;;;;;;;5034448;28;20446;-85
2023/07/13 07:20:33;;;;;;;2.70;1.33;;;;;;;;;;5031706;28;20466;-85
2023/07/13 07:23:01;;;;;;;2.90;1.00;;;;;;;;;;5020838;28;20981;-85
2023/07/13 07:25:31;;;;;;;2.10;1.00;;;;;;;;;;5024047;28;20529;-85
2023/07/13 07:27:59;;;;;;;2.23;1.03;;;;;;;;;;5022828;28;20952;-85
2023/07/13 07:30:26;;;;;;;2.67;1.07;;;;;;;;;;5023187;28;20462;-85
2023/07/13 07:32:54;;;;;;;2.63;1.00;;;;;;;;;;5019523;28;20501;-86
2023/07/13 07:35:21;;;;;;;2.10;1.07;;;;;;;;;;5028846;28;20474;-85
2023/07/13 07:37:48;;;;;;;2.43;1.00;;;;;;;;;;5012366;28;20467;-85
2023/07/13 07:40:17;;;;;;;2.20;0.80;;;;;;;;;;5015698;28;20543;-85
2023/07/13 07:42:44;;;;;;;3.90;1.10;;;;;;;;;;5021933;28;20503;-85
2023/07/13 07:45:12;;;;;;;1.90;0.80;;;;;;;;;;5023262;28;20513;-85
2023/07/13 07:47:39;;;;;;;3.10;1.20;;;;;;;;;;5020359;28;20516;-85
2023/07/13 07:50:07;;;;;;;2.43;1.10;;;;;;;;;;5022737;28;20490;-86
2023/07/13 07:52:34;;;;;;;1.93;0.93;;;;;;;;;;5015192;28;20532;-85
2023/07/13 07:55:01;;;;;;;2.27;1.40;;;;;;;;;;5014934;28;20482;-85
2023/07/13 07:57:30;;;;;;;1.70;0.90;;;;;;;;;;5020311;28;20845;-85
2023/07/13 07:59:57;;;;;;;1.90;0.80;;;;;;;;;;5028723;28;20889;-85
2023/07/13 08:02:26;;;;;;;2.40;1.00;;;;;;;;;;5040104;28;20454;-85
2023/07/13 08:04:53;;;;;;;1.80;0.90;;;;;;;;;;5033241;28;20510;-85
2023/07/13 08:07:20;;;;;;;3.40;1.43;;;;;;;;;;5026694;28;20825;-85
2023/07/13 08:09:52;;;;;;;2.10;1.00;;;;;;;;;;5034690;28;20477;-86
2023/07/13 08:12:19;;;;;;;2.63;1.10;;;;;;;;;;5029284;28;20457;-85
2023/07/13 08:14:53;;;;;;;2.00;1.03;;;;;;;;;;5034423;28;20470;-85
2023/07/13 08:17:20;;;;;;;2.20;1.10;;;;;;;;;;5034849;28;20486;-86
2023/07/13 08:19:47;;;;;;;2.10;1.00;;;;;;;;;;5034213;28;20538;-85
2023/07/13 08:22:15;;;;;;;2.10;0.77;;;;;;;;;;5027438;28;20533;-85
2023/07/13 08:24:43;;;;;;;2.47;1.20;;;;;;;;;;5024342;28;20562;-85
2023/07/13 08:27:11;;;;;;;2.07;0.87;;;;;;;;;;5025328;28;20453;-85
2023/07/13 08:29:38;;;;;;;2.80;1.07;;;;;;;;;;5030974;28;20451;-85
2023/07/13 08:32:09;;;;;;;2.10;1.10;;;;;;;;;;5033648;28;20450;-86
2023/07/13 08:34:36;;;;;;;2.93;1.40;;;;;;;;;;5033276;28;20450;-86
2023/07/13 08:37:03;;;;;;;2.83;1.13;;;;;;;;;;5028028;28;20474;-85
2023/07/13 08:39:31;;;;;;;1.80;0.90;;;;;;;;;;5025980;28;20933;-85
2023/07/13 08:42:02;;;;;;;2.40;1.10;;;;;;;;;;5034153;28;20473;-86
2023/07/13 08:44:41;;;;;;;2.10;0.90;;;;;;;;;;5014688;28;20560;-86
2023/07/13 08:47:11;;;;;;;3.10;1.30;;;;;;;;;;5014140;28;20438;-85
2023/07/13 08:49:39;;;;;;;2.10;1.00;;;;;;;;;;5014517;28;20459;-85
2023/07/13 08:52:10;;;;;;;2.27;1.00;;;;;;;;;;5020289;28;20521;-85
2023/07/13 08:54:38;;;;;;;2.03;0.90;;;;;;;;;;5017288;28;20479;-86
2023/07/13 08:57:12;;;;;;;3.93;1.57;;;;;;;;;;5027210;28;20541;-85
2023/07/13 08:59:39;;;;;;;2.23;0.97;;;;;;;;;;5030022;28;20526;-85
2023/07/13 09:02:17;;;;;;;2.50;0.93;;;;;;;;;;5032453;28;20481;-85
2023/07/13 09:04:48;;;;;;;2.07;1.07;;;;;;;;;;5032889;28;20481;-85
2023/07/13 09:07:18;;;;;;;2.40;0.80;;;;;;;;;;5031721;28;20807;-85
2023/07/13 09:09:52;;;;;;;3.10;1.00;;;;;;;;;;5034548;28;20465;-85
2023/07/13 09:12:21;;;;;;;4.33;1.03;;;;;;;;;;5032335;28;20457;-85
2023/07/13 09:14:50;;;;;;;2.27;0.87;;;;;;;;;;5033005;28;20438;-85
2023/07/13 09:17:19;;;;;;;1.90;1.07;;;;;;;;;;5033473;28;21026;-85
2023/07/13 09:19:52;;;;;;;1.90;0.80;;;;;;;;;;5033296;28;20477;-85
2023/07/13 09:22:21;;;;;;;1.90;0.80;;;;;;;;;;5031726;28;20469;-85
2023/07/13 09:24:57;;;;;;;2.07;1.00;;;;;;;;;;5032728;28;20510;-85
2023/07/13 09:27:25;;;;;;;2.43;1.00;;;;;;;;;;5032473;28;20454;-85
2023/07/13 09:29:56;;;;;;;2.53;1.10;;;;;;;;;;5033203;28;20466;-85
2023/07/13 09:32:24;;;;;;;1.90;1.00;;;;;;;;;;5028680;28;20558;-85
2023/07/13 09:34:54;;;;;;;2.60;1.10;;;;;;;;;;5031937;28;20463;-85
2023/07/13 09:37:22;;;;;;;2.40;1.30;;;;;;;;;;5031689;28;20451;-85
2023/07/13 09:39:50;;;;;;;1.93;1.20;;;;;;;;;;5031598;28;21165;-85
2023/07/13 09:42:18;;;;;;;1.90;0.90;;;;;;;;;;5032813;28;20474;-86
2023/07/13 09:44:53;;;;;;;1.97;0.77;;;;;;;;;;5032954;28;20498;-85
2023/07/13 09:47:23;;;;;;;1.97;0.83;;;;;;;;;;5025492;28;20453;-85
2023/07/13 09:49:55;;;;;;;6.03;1.07;;;;;;;;;;5016139;28;20505;-85
2023/07/13 09:52:24;;;;;;;1.80;0.80;;;;;;;;;;5023591;28;20483;-85
2023/07/13 09:54:53;;;;;;;2.43;0.90;;;;;;;;;;5032130;28;20501;-85
2023/07/13 09:57:24;;;;;;;3.03;1.00;;;;;;;;;;5032589;28;20493;-86
2023/07/13 09:59:53;;;;;;;1.80;0.83;;;;;;;;;;5032173;28;20512;-85
2023/07/13 10:02:30;;;;;;;2.80;0.77;;;;;;;;;;5032403;28;20878;-85
2023/07/13 10:04:58;;;;;;;2.20;1.10;;;;;;;;;;5032339;28;20534;-85
2023/07/13 10:07:27;;;;;;;2.17;0.80;;;;;;;;;;5032176;28;20453;-85
2023/07/13 10:09:55;;;;;;;2.67;1.00;;;;;;;;;;5028506;28;20466;-84
2023/07/13 10:12:24;;;;;;;2.40;1.00;;;;;;;;;;5015914;28;20448;-85
2023/07/13 10:14:53;;;;;;;3.40;0.80;;;;;;;;;;5023950;28;20455;-84
2023/07/13 10:17:24;;;;;;;2.67;1.10;;;;;;;;;;5032064;28;20446;-84
2023/07/13 10:19:51;;;;;;;2.77;1.30;;;;;;;;;;5027428;28;20450;-84
2023/07/13 10:22:22;;;;;;;2.27;1.10;;;;;;;;;;5029202;28;20481;-84
2023/07/13 10:24:51;;;;;;;1.90;0.80;;;;;;;;;;5031543;28;20509;-83
2023/07/13 10:27:20;;;;;;;2.33;0.80;;;;;;;;;;5040005;28;20446;-86
2023/07/13 10:29:49;;;;;;;1.90;0.80;;;;;;;;;;5025493;28;20481;-85
2023/07/13 10:32:16;;;;;;;2.37;0.80;;;;;;;;;;5025595;28;20540;-85
2023/07/13 10:34:45;;;;;;;2.10;0.80;;;;;;;;;;5023297;28;20489;-85
2023/07/13 10:37:17;;;;;;;1.90;1.10;;;;;;;;;;5017643;28;20443;-85
2023/07/13 10:39:45;;;;;;;2.10;1.00;;;;;;;;;;5020791;28;20447;-85
2023/07/13 10:42:17;;;;;;;2.50;1.20;;;;;;;;;;5014980;28;20501;-85
2023/07/13 10:44:44;;;;;;;2.60;1.30;;;;;;;;;;5021054;28;20477;-85
2023/07/13 10:47:15;;;;;;;2.13;1.10;;;;;;;;;;5018260;28;20475;-85
2023/07/13 10:49:43;;;;;;;2.00;0.87;;;;;;;;;;5021592;28;20467;-84
2023/07/13 10:52:39;;;;;;;1.90;0.80;;;;;;;;;;5023702;28;20517;-85
2023/07/13 10:55:06;;;;;;;2.10;0.90;;;;;;;;;;4996767;28;20530;-85
2023/07/13 10:57:43;;;;;;;2.33;1.77;;;;;;;;;;5013481;28;20479;-85
2023/07/13 11:00:18;;;;;;;3.13;2.10;;;;;;;;;;5022980;28;20558;-85
2023/07/13 11:02:57;;;;;;;4.53;2.00;;;;;;;;;;5014868;28;21025;-84
2023/07/13 11:05:28;;;;;;;4.20;2.20;;;;;;;;;;5031936;28;20565;-85
2023/07/13 11:07:57;;;;;;;3.27;2.47;;;;;;;;;;5026737;28;20946;-85
2023/07/13 11:10:43;;;;;;;3.13;1.97;;;;;;;;;;5023676;28;20460;-86
2023/07/13 11:13:31;;;;;;;2.17;1.17;;;;;;;;;;5010834;28;20495;-86
2023/07/13 11:15:59;;;;;;;2.03;1.00;;;;;;;;;;5010950;28;21211;-86
2023/07/13 11:18:26;;;;;;;2.27;0.77;;;;;;;;;;5010655;28;20483;-86
2023/07/13 11:20:54;;;;;;;2.07;0.70;;;;;;;;;;5015059;28;20959;-87
2023/07/13 11:23:28;;;;;;;2.00;0.90;;;;;;;;;;5015583;28;20502;-88
2023/07/13 11:25:55;;;;;;;2.33;0.63;;;;;;;;;;5018793;28;20485;-88
2023/07/13 11:28:28;;;;;;;3.40;0.80;;;;;;;;;;5027248;28;20864;-88
2023/07/13 11:31:15;;;;;;;2.03;0.97;;;;;;;;;;5017580;28;20455;-87
2023/07/13 11:33:53;;;;;;;3.00;0.67;;;;;;;;;;5029783;28;20446;-87
2023/07/13 11:36:22;;;;;;;1.70;0.70;;;;;;;;;;5021306;28;20442;-86
2023/07/13 11:38:52;;;;;;;2.30;1.33;;;;;;;;;;5011271;28;20462;-89
2023/07/13 11:41:21;;;;;;;1.90;0.80;;;;;;;;;;5011677;28;20482;-89
2023/07/13 11:43:52;;;;;;;1.80;0.80;;;;;;;;;;5010997;28;20451;-90
2023/07/13 11:46:23;;;;;;;1.93;0.77;;;;;;;;;;5010629;28;20521;-89
2023/07/13 11:48:51;;;;;;;1.63;0.60;;;;;;;;;;5009566;28;20851;-89
2023/07/13 11:51:22;;;;;;;1.67;0.60;;;;;;;;;;5011587;28;20455;-88
2023/07/13 11:53:51;;;;;;;1.80;0.90;;;;;;;;;;5010796;28;21005;-88
2023/07/13 11:56:19;;;;;;;2.10;1.20;;;;;;;;;;5011028;28;20957;-87
2023/07/13 11:58:50;;;;;;;1.80;0.70;;;;;;;;;;5010879;28;20470;-87
2023/07/13 12:01:20;;;;;;;1.90;0.70;;;;;;;;;;5023353;28;20981;-87
2023/07/13 12:03:47;;;;;;;1.93;0.80;;;;;;;;;;5037799;28;20506;-88
2023/07/13 12:06:26;;;;;;;1.80;0.77;;;;;;;;;;5050430;28;20568;-88
2023/07/13 12:08:53;;;;;;;1.70;0.73;;;;;;;;;;5051195;28;20422;-87
2023/07/13 12:11:21;;;;;;;1.73;0.70;;;;;;;;;;5048482;28;21033;-87
2023/07/13 12:13:49;;;;;;;1.83;0.70;;;;;;;;;;5028407;28;20462;-88
2023/07/13 12:16:17;;;;;;;2.17;0.90;;;;;;;;;;5030199;28;20469;-87
2023/07/13 12:18:49;;;;;;;2.10;1.00;;;;;;;;;;5022182;28;20482;-88
2023/07/13 12:21:19;;;;;;;2.53;0.97;;;;;;;;;;5030278;28;20462;-88
2023/07/13 12:23:49;;;;;;;4.10;1.27;;;;;;;;;;5029952;28;20573;-87
2023/07/13 12:26:17;;;;;;;1.80;0.80;;;;;;;;;;5028656;28;20543;-87
2023/07/13 12:28:46;;;;;;;2.33;1.27;;;;;;;;;;5026978;28;20465;-87
2023/07/13 12:31:25;;;;;;;1.90;1.00;;;;;;;;;;5011115;28;20490;-88
2023/07/13 12:33:59;;;;;;;1.90;0.80;;;;;;;;;;5014135;28;20656;-87
2023/07/13 12:36:27;;;;;;;2.00;0.80;;;;;;;;;;5030410;28;20522;-88
2023/07/13 12:38:54;;;;;;;3.07;0.97;;;;;;;;;;5031657;28;20466;-87
2023/07/13 12:41:23;;;;;;;2.20;0.80;;;;;;;;;;5033029;28;20446;-86
2023/07/13 12:43:50;;;;;;;1.80;0.70;;;;;;;;;;5032137;28;20867;-86
2023/07/13 12:46:19;;;;;;;3.03;0.80;;;;;;;;;;5027154;28;20549;-87
2023/07/13 12:48:49;;;;;;;2.30;0.87;;;;;;;;;;5033445;28;20450;-87
2023/07/13 12:51:18;;;;;;;1.90;0.90;;;;;;;;;;5033312;28;20470;-86
2023/07/13 12:53:49;;;;;;;2.10;1.00;;;;;;;;;;5031680;28;20501;-87
2023/07/13 12:56:20;;;;;;;2.00;0.80;;;;;;;;;;5025581;28;20542;-87
2023/07/13 12:58:54;;;;;;;1.77;0.70;;;;;;;;;;5032470;28;20879;-86
2023/07/13 13:01:22;;;;;;;1.90;0.90;;;;;;;;;;5026882;28;20945;-87
2023/07/13 13:03:51;;;;;;;3.40;0.97;;;;;;;;;;5034015;28;20490;-87
2023/07/13 13:06:27;;;;;;;1.90;0.97;;;;;;;;;;5033501;28;20528;-87
2023/07/13 13:08:55;;;;;;;1.70;0.70;;;;;;;;;;5033469;28;20474;-87
2023/07/13 13:11:24;;;;;;;1.90;0.80;;;;;;;;;;5033456;28;20979;-86
2023/07/13 13:13:51;;;;;;;1.80;0.70;;;;;;;;;;5032161;28;20471;-87
2023/07/13 13:16:21;;;;;;;1.87;0.87;;;;;;;;;;5032315;28;20692;-86
2023/07/13 13:18:49;;;;;;;1.83;0.80;;;;;;;;;;5033143;28;20512;-87
2023/07/13 13:21:17;;;;;;;2.90;1.00;;;;;;;;;;5033290;28;20541;-87
2023/07/13 13:23:45;;;;;;;2.93;0.80;;;;;;;;;;5032873;28;20466;-87
2023/07/13 13:26:14;;;;;;;2.73;1.00;;;;;;;;;;5032462;28;20502;-87
2023/07/13 13:28:41;;;;;;;2.33;1.07;;;;;;;;;;5032047;28;20477;-87
2023/07/13 13:31:13;;;;;;;2.87;1.17;;;;;;;;;;5031066;28;20442;-87
2023/07/13 13:33:43;;;;;;;2.57;0.70;;;;;;;;;;5032458;28;20474;-86
2023/07/13 13:36:15;;;;;;;2.63;0.80;;;;;;;;;;5038877;28;20470;-86
2023/07/13 13:38:43;;;;;;;4.07;0.87;;;;;;;;;;5039810;28;20472;-86
2023/07/13 13:41:13;;;;;;;3.80;0.87;;;;;;;;;;5032270;28;20525;-86
2023/07/13 13:43:41;;;;;;;1.90;0.77;;;;;;;;;;5030844;28;20489;-86
2023/07/13 13:46:14;;;;;;;3.00;1.20;;;;;;;;;;5022114;28;20482;-86
2023/07/13 13:48:42;;;;;;;2.23;0.90;;;;;;;;;;5031386;28;20538;-86
2023/07/13 13:51:14;;;;;;;2.87;0.77;;;;;;;;;;5032163;28;20533;-86
2023/07/13 13:53:42;;;;;;;2.10;0.80;;;;;;;;;;5032541;28;20458;-86
2023/07/13 13:56:09;;;;;;;2.67;0.90;;;;;;;;;;5032634;28;20431;-87
2023/07/13 13:58:38;;;;;;;2.37;0.97;;;;;;;;;;5033350;28;20494;-86
2023/07/13 14:01:08;;;;;;;2.53;0.80;;;;;;;;;;5032828;28;20946;-86
2023/07/13 14:03:35;;;;;;;2.80;1.03;;;;;;;;;;5032594;28;20486;-86
2023/07/13 14:06:02;;;;;;;2.37;0.90;;;;;;;;;;5032814;28;20521;-86
2023/07/13 14:08:30;;;;;;;2.10;0.80;;;;;;;;;;5033048;28;20538;-86
2023/07/13 14:10:59;;;;;;;2.20;0.80;;;;;;;;;;5033074;28;20446;-86
2023/07/13 14:13:29;;;;;;;1.93;0.80;;;;;;;;;;5031909;28;20972;-86
2023/07/13 14:15:59;;;;;;;1.63;0.60;;;;;;;;;;5032264;28;20830;-86
2023/07/13 14:18:26;;;;;;;1.70;0.70;;;;;;;;;;5032592;28;20446;-86
2023/07/13 14:20:53;;;;;;;2.07;0.53;;;;;;;;;;5032850;28;20873;-86
2023/07/13 14:23:21;;;;;;;1.73;0.60;;;;;;;;;;5031880;28;20545;-86
2023/07/13 14:25:48;;;;;;;2.43;0.80;;;;;;;;;;5032293;28;20577;-86
2023/07/13 14:28:20;;;;;;;1.60;0.43;;;;;;;;;;5027142;28;20466;-86
2023/07/13 14:30:48;;;;;;;2.00;0.73;;;;;;;;;;5025119;28;20535;-86
2023/07/13 14:33:17;;;;;;;2.10;0.70;;;;;;;;;;5031431;28;20865;-86
2023/07/13 14:35:44;;;;;;;1.70;0.60;;;;;;;;;;5025695;28;20893;-86
2023/07/13 14:38:13;;;;;;;2.07;0.70;;;;;;;;;;5031066;28;20463;-86
2023/07/13 14:40:41;;;;;;;2.00;0.73;;;;;;;;;;5031117;28;20589;-87
2023/07/13 14:43:11;;;;;;;2.30;0.80;;;;;;;;;;5031781;28;20462;-86
2023/07/13 14:45:40;;;;;;;1.80;0.80;;;;;;;;;;5032201;28;20481;-86
2023/07/13 14:48:11;;;;;;;1.80;0.67;;;;;;;;;;5030634;28;20442;-86
2023/07/13 14:50:41;;;;;;;2.67;1.00;;;;;;;;;;5029337;28;20450;-86
2023/07/13 14:53:11;;;;;;;1.97;0.90;;;;;;;;;;5029335;28;20474;-86